createdAt,value
2022-09-03T00:00:39.800Z,15.99
2022-09-03T00:03:12.885Z,15.93
2022-09-03T00:05:41.770Z,15.88
2022-09-03T00:08:20.942Z,15.88
2022-09-03T00:11:07.102Z,15.91
2022-09-03T00:13:39.819Z,15.96
2022-09-03T00:16:10.458Z,15.96
2022-09-03T00:18:42.967Z,15.96
2022-09-03T00:21:15.991Z,15.98
2022-09-03T00:23:44.967Z,15.92
2022-09-03T00:26:14.998Z,15.87
2022-09-03T00:28:43.366Z,15.84
2022-09-03T00:31:16.087Z,15.86
2022-09-03T00:33:44.944Z,15.81
2022-09-03T00:36:44.285Z,15.78
2022-09-03T00:39:13.151Z,15.73
2022-09-03T00:41:48.804Z,15.66
2022-09-03T00:44:15.958Z,15.60
2022-09-03T00:47:06.004Z,15.58
2022-09-03T00:49:33.308Z,15.54
2022-09-03T00:52:03.152Z,15.50
2022-09-03T00:54:50.582Z,15.49
2022-09-03T00:57:29.769Z,15.48
2022-09-03T00:59:59.323Z,15.46
2022-09-03T01:02:29.365Z,15.42
2022-09-03T01:05:02.136Z,15.38
2022-09-03T01:07:35.659Z,15.36
2022-09-03T01:10:21.224Z,15.34
2022-09-03T01:12:48.969Z,15.36
2022-09-03T01:15:20.453Z,15.36
2022-09-03T01:18:07.323Z,15.37
2022-09-03T01:20:50.632Z,15.32
2022-09-03T01:23:37.107Z,15.28
2022-09-03T01:26:23.012Z,15.24
2022-09-03T01:28:52.810Z,15.23
2022-09-03T01:31:35.457Z,15.16
2022-09-03T01:34:02.427Z,15.10
2022-09-03T01:36:38.165Z,15.10
2022-09-03T01:39:06.521Z,15.09
2022-09-03T01:42:07.793Z,15.05
2022-09-03T01:44:53.490Z,15.02
2022-09-03T01:47:20.605Z,15.01
2022-09-03T01:49:53.197Z,14.99
2022-09-03T01:52:26.357Z,14.99
2022-09-03T01:54:56.301Z,14.99
2022-09-03T01:57:42.037Z,14.94
2022-09-03T02:00:13.945Z,14.93
2022-09-03T02:02:43.593Z,14.92
2022-09-03T02:05:10.601Z,14.94
2022-09-03T02:07:48.269Z,14.96
2022-09-03T02:10:16.904Z,14.97
2022-09-03T02:12:49.416Z,14.97
2022-09-03T02:15:18.373Z,14.95
2022-09-03T02:17:47.559Z,14.92
2022-09-03T02:20:20.081Z,14.90
2022-09-03T02:22:48.696Z,14.90
2022-09-03T02:25:16.301Z,14.85
2022-09-03T02:27:44.306Z,14.81
2022-09-03T02:30:12.066Z,14.77
2022-09-03T02:32:39.004Z,14.73
2022-09-03T02:35:06.033Z,14.66
2022-09-03T02:37:33.172Z,14.69
2022-09-03T02:40:00.355Z,14.66
2022-09-03T02:42:27.637Z,14.66
2022-09-03T02:45:05.857Z,14.60
2022-09-03T02:47:33.334Z,14.55
2022-09-03T02:50:00.557Z,14.51
2022-09-03T02:52:27.379Z,14.50
2022-09-03T02:54:54.196Z,14.50
2022-09-03T02:57:27.656Z,14.48
2022-09-03T02:59:55.025Z,14.43
2022-09-03T03:02:22.218Z,14.41
2022-09-03T03:04:49.298Z,14.41
2022-09-03T03:07:16.128Z,14.39
2022-09-03T03:09:44.137Z,14.40
2022-09-03T03:12:11.094Z,14.41
2022-09-03T03:14:38.042Z,14.38
2022-09-03T03:17:05.525Z,14.36
2022-09-03T03:19:32.674Z,14.36
2022-09-03T03:21:59.667Z,14.33
2022-09-03T03:24:26.833Z,14.34
2022-09-03T03:26:58.378Z,14.30
2022-09-03T03:29:25.502Z,14.29
2022-09-03T03:31:52.620Z,14.32
2022-09-03T03:34:20.736Z,14.31
2022-09-03T03:36:47.547Z,14.36
2022-09-03T03:39:15.715Z,14.38
2022-09-03T03:41:42.541Z,14.40
2022-09-03T03:44:09.363Z,14.41
2022-09-03T03:46:40.141Z,14.39
2022-09-03T03:49:07.546Z,14.38
2022-09-03T03:51:35.179Z,14.39
2022-09-03T03:54:05.244Z,14.36
2022-09-03T03:56:33.083Z,14.35
2022-09-03T03:59:00.239Z,14.34
2022-09-03T04:01:28.397Z,14.33
2022-09-03T04:03:56.589Z,14.26
2022-09-03T04:06:24.113Z,14.22
2022-09-03T04:08:51.529Z,14.20
2022-09-03T04:11:19.525Z,14.19
2022-09-03T04:13:46.923Z,14.16
2022-09-03T04:16:18.228Z,14.13
2022-09-03T04:18:45.412Z,14.10
2022-09-03T04:21:13.767Z,14.07
2022-09-03T04:23:42.124Z,14.08
2022-09-03T04:26:10.249Z,14.05
2022-09-03T04:28:37.885Z,14.04
2022-09-03T04:31:09.117Z,13.99
2022-09-03T04:33:38.149Z,13.98
2022-09-03T04:36:12.816Z,14.05
2022-09-03T04:38:41.115Z,14.07
2022-09-03T04:41:09.767Z,14.10
2022-09-03T04:43:36.949Z,14.22
2022-09-03T04:46:05.153Z,14.42
2022-09-03T04:48:33.211Z,14.52
2022-09-03T04:51:08.033Z,14.80
2022-09-03T04:53:36.538Z,14.88
2022-09-03T04:56:04.225Z,14.73
2022-09-03T04:58:31.489Z,14.63
2022-09-03T05:00:58.900Z,14.53
2022-09-03T05:03:25.823Z,14.45
2022-09-03T05:05:55.659Z,14.34
2022-09-03T05:08:24.570Z,14.38
2022-09-03T05:10:57.805Z,14.37
2022-09-03T05:13:24.930Z,14.39
2022-09-03T05:15:52.015Z,14.42
2022-09-03T05:18:18.913Z,14.43
2022-09-03T05:20:46.088Z,14.56
2022-09-03T05:23:13.559Z,14.66
2022-09-03T05:27:34.872Z,14.67
2022-09-03T05:30:03.125Z,14.72
2022-09-03T05:32:31.379Z,14.73
2022-09-03T05:34:58.203Z,14.73
2022-09-03T05:37:25.559Z,14.89
2022-09-03T05:39:52.550Z,15.00
2022-09-03T05:42:19.583Z,15.09
2022-09-03T05:44:48.623Z,15.21
2022-09-03T05:47:16.778Z,15.38
2022-09-03T05:49:43.596Z,15.51
2022-09-03T05:52:10.724Z,15.66
2022-09-03T05:54:37.685Z,16.07
2022-09-03T05:57:05.714Z,17.06
2022-09-03T05:59:35.041Z,18.39
2022-09-03T06:02:02.068Z,19.55
2022-09-03T06:04:29.022Z,20.56
2022-09-03T06:06:58.398Z,21.18
2022-09-03T06:09:25.300Z,21.52
2022-09-03T06:11:53.971Z,21.70
2022-09-03T06:14:21.683Z,21.73
2022-09-03T06:16:50.484Z,21.96
2022-09-03T06:19:17.665Z,22.32
2022-09-03T06:21:47.740Z,22.49
2022-09-03T06:24:15.695Z,21.40
2022-09-03T06:26:43.303Z,21.34
2022-09-03T06:29:11.296Z,22.19
2022-09-03T06:31:38.196Z,21.88
2022-09-03T06:34:08.205Z,21.81
2022-09-03T06:36:37.266Z,21.58
2022-09-03T06:39:04.196Z,21.06
2022-09-03T06:41:33.936Z,21.06
2022-09-03T06:44:03.487Z,21.67
2022-09-03T06:46:32.093Z,22.24
2022-09-03T06:48:58.966Z,21.74
2022-09-03T06:51:27.334Z,22.20
2022-09-03T06:53:55.243Z,22.31
2022-09-03T06:56:26.483Z,22.67
2022-09-03T06:58:57.437Z,23.06
2022-09-03T07:01:26.035Z,23.50
2022-09-03T07:03:57.215Z,23.73
2022-09-03T07:06:28.868Z,23.92
2022-09-03T07:08:57.954Z,23.93
2022-09-03T07:11:26.969Z,24.18
2022-09-03T07:13:54.477Z,24.26
2022-09-03T07:16:22.962Z,24.68
2022-09-03T07:18:50.139Z,24.32
2022-09-03T07:21:26.039Z,24.33
2022-09-03T07:23:54.073Z,24.31
2022-09-03T07:26:22.302Z,24.48
2022-09-03T07:28:49.735Z,24.41
2022-09-03T07:31:19.762Z,24.39
2022-09-03T07:33:47.276Z,24.32
2022-09-03T07:36:15.606Z,24.39
2022-09-03T07:38:45.093Z,24.36
2022-09-03T07:41:12.658Z,24.53
2022-09-03T07:43:48.990Z,24.82
2022-09-03T07:46:23.292Z,24.91
2022-09-03T07:48:51.045Z,24.85
2022-09-03T07:51:18.716Z,24.70
2022-09-03T07:53:48.843Z,24.70
2022-09-03T07:56:15.985Z,24.54
2022-09-03T07:58:43.074Z,24.57
2022-09-03T08:01:11.496Z,24.51
2022-09-03T08:03:42.397Z,24.60
2022-09-03T08:06:09.697Z,24.68
2022-09-03T08:08:37.334Z,24.65
2022-09-03T08:11:11.107Z,24.47
2022-09-03T08:13:41.749Z,24.54
2022-09-03T08:16:09.689Z,24.77
2022-09-03T08:18:40.151Z,24.82
2022-09-03T08:21:07.963Z,24.95
2022-09-03T08:23:39.051Z,25.14
2022-09-03T08:26:07.161Z,24.85
2022-09-03T08:28:34.820Z,24.22
2022-09-03T08:31:11.580Z,24.45
2022-09-03T08:33:39.295Z,24.60
2022-09-03T08:36:08.285Z,24.37
2022-09-03T08:38:36.408Z,24.30
2022-09-03T08:41:04.841Z,24.41
2022-09-03T08:43:35.645Z,24.46
2022-09-03T08:46:04.626Z,24.50
2022-09-03T08:48:32.468Z,24.45
2022-09-03T08:51:00.150Z,24.42
2022-09-03T08:53:30.111Z,24.42
2022-09-03T08:56:04.202Z,24.54
2022-09-03T08:58:33.195Z,24.58
2022-09-03T09:01:03.520Z,24.72
2022-09-03T09:03:33.675Z,24.71
2022-09-03T09:06:08.123Z,24.76
2022-09-03T09:08:58.406Z,24.98
2022-09-03T09:11:25.587Z,25.17
2022-09-03T09:14:02.904Z,25.18
2022-09-03T09:16:33.053Z,25.26
2022-09-03T09:19:09.955Z,25.32
2022-09-03T09:21:37.674Z,25.39
2022-09-03T09:24:08.858Z,25.17
2022-09-03T09:26:36.144Z,25.04
2022-09-03T09:29:06.176Z,25.00
2022-09-03T09:31:37.841Z,24.93
2022-09-03T09:34:07.086Z,24.87
2022-09-03T09:36:42.919Z,24.71
2022-09-03T09:39:10.652Z,24.64
2022-09-03T09:41:37.543Z,24.65
2022-09-03T09:44:05.797Z,24.73
2022-09-03T09:46:36.849Z,24.75
2022-09-03T09:49:08.892Z,24.50
2022-09-03T09:51:36.464Z,24.41
2022-09-03T09:54:04.802Z,24.36
2022-09-03T09:56:31.929Z,24.34
2022-09-03T09:59:08.999Z,24.23
2022-09-03T10:01:37.972Z,24.12
2022-09-03T10:04:24.550Z,23.96
2022-09-03T10:06:55.499Z,23.77
2022-09-03T10:09:29.910Z,23.84
2022-09-03T10:11:58.947Z,23.72
2022-09-03T10:14:43.003Z,23.54
2022-09-03T10:17:22.173Z,23.45
2022-09-03T10:20:28.225Z,23.47
2022-09-03T10:22:57.537Z,23.46
2022-09-03T10:25:35.896Z,23.45
2022-09-03T10:28:03.415Z,23.53
2022-09-03T10:30:40.155Z,23.58
2022-09-03T10:33:27.242Z,23.80
2022-09-03T10:36:02.242Z,23.86
2022-09-03T10:38:31.175Z,23.89
2022-09-03T10:40:58.674Z,23.91
2022-09-03T10:43:45.926Z,23.88
2022-09-03T10:46:23.338Z,23.76
2022-09-03T10:48:54.079Z,23.70
2022-09-03T10:51:26.938Z,23.66
2022-09-03T10:54:12.570Z,23.53
2022-09-03T10:56:59.539Z,23.51
2022-09-03T10:59:34.667Z,23.77
2022-09-03T11:02:11.393Z,23.83
2022-09-03T11:04:41.066Z,23.84
2022-09-03T11:07:10.332Z,23.84
2022-09-03T11:09:51.000Z,23.65
2022-09-03T11:12:25.474Z,23.55
2022-09-03T11:15:00.796Z,23.58
2022-09-03T11:17:48.203Z,23.56
2022-09-03T11:20:22.711Z,23.65
2022-09-03T11:22:51.787Z,23.73
2022-09-03T11:25:20.189Z,23.68
2022-09-03T11:28:13.280Z,23.69
2022-09-03T11:30:49.972Z,23.84
2022-09-03T11:33:20.037Z,23.83
2022-09-03T11:35:47.764Z,23.84
2022-09-03T11:38:14.743Z,23.86
2022-09-03T11:40:57.036Z,23.85
2022-09-03T11:43:24.200Z,23.90
2022-09-03T11:46:03.477Z,23.87
2022-09-03T11:48:30.838Z,23.78
2022-09-03T11:50:57.667Z,23.87
2022-09-03T11:53:28.430Z,23.88
2022-09-03T11:56:15.776Z,23.85
2022-09-03T11:58:43.889Z,23.78
2022-09-03T12:01:16.269Z,23.81
2022-09-03T12:03:53.567Z,23.91
2022-09-03T12:06:21.000Z,23.96
2022-09-03T12:09:08.240Z,23.98
2022-09-03T12:11:44.568Z,23.92
2022-09-03T12:14:13.910Z,23.97
2022-09-03T12:16:49.338Z,24.00
2022-09-03T12:19:26.008Z,23.99
2022-09-03T12:21:54.093Z,24.02
2022-09-03T12:24:23.453Z,24.02
2022-09-03T12:26:50.300Z,24.00
2022-09-03T12:29:28.208Z,24.07
2022-09-03T12:32:06.205Z,24.13
2022-09-03T12:34:33.383Z,24.33
2022-09-03T12:37:00.229Z,24.36
2022-09-03T12:42:19.761Z,24.22
2022-09-03T12:44:46.612Z,24.22
2022-09-03T12:50:07.356Z,24.14
2022-09-03T12:52:36.548Z,24.06
2022-09-03T12:55:27.707Z,24.03
2022-09-03T12:57:57.908Z,24.07
2022-09-03T13:00:30.437Z,24.11
2022-09-03T13:03:00.707Z,24.19
2022-09-03T13:05:31.142Z,24.25
2022-09-03T13:08:00.646Z,24.32
2022-09-03T13:10:32.287Z,24.36
2022-09-03T13:13:00.891Z,24.32
2022-09-03T13:15:28.739Z,24.27
2022-09-03T13:18:24.978Z,24.25
2022-09-03T13:21:13.948Z,24.30
2022-09-03T13:23:52.973Z,24.27
2022-09-03T13:26:30.552Z,24.32
2022-09-03T13:29:16.214Z,24.32
2022-09-03T13:32:18.642Z,24.39
2022-09-03T13:34:57.163Z,24.44
2022-09-03T13:37:41.833Z,24.50
2022-09-03T13:40:23.420Z,24.52
2022-09-03T13:43:02.752Z,24.56
2022-09-03T13:45:52.656Z,24.52
2022-09-03T13:48:47.542Z,24.65
2022-09-03T13:51:17.337Z,24.75
2022-09-03T13:53:56.863Z,24.83
2022-09-03T13:56:35.764Z,24.91
2022-09-03T13:59:08.804Z,24.76
2022-09-03T14:01:47.152Z,24.66
2022-09-03T14:04:23.160Z,24.64
2022-09-03T14:06:55.547Z,24.65
2022-09-03T14:09:42.077Z,24.65
2022-09-03T14:12:18.675Z,24.70
2022-09-03T14:14:52.245Z,24.75
2022-09-03T14:17:54.635Z,24.67
2022-09-03T14:20:34.057Z,24.51
2022-09-03T14:23:00.854Z,24.42
2022-09-03T14:25:28.670Z,24.44
2022-09-03T14:27:56.237Z,24.36
2022-09-03T14:30:31.418Z,24.34
2022-09-03T14:32:58.531Z,24.30
2022-09-03T14:35:44.222Z,24.27
2022-09-03T14:38:17.137Z,24.19
2022-09-03T14:40:45.589Z,24.27
2022-09-03T14:43:18.370Z,24.32
2022-09-03T14:45:45.471Z,24.34
2022-09-03T14:48:15.154Z,24.39
2022-09-03T14:50:51.614Z,24.49
2022-09-03T14:53:31.235Z,24.52
2022-09-03T14:56:04.507Z,24.56
2022-09-03T14:58:31.345Z,24.61
2022-09-03T15:01:02.658Z,24.64
2022-09-03T15:03:44.036Z,24.68
2022-09-03T15:06:20.400Z,24.81
2022-09-03T15:09:15.425Z,24.93
2022-09-03T15:11:51.315Z,25.06
2022-09-03T15:14:22.520Z,25.15
2022-09-03T15:17:04.941Z,25.19
2022-09-03T15:19:54.780Z,25.35
2022-09-03T15:22:22.013Z,25.49
2022-09-03T15:25:15.346Z,25.48
2022-09-03T15:27:57.723Z,25.36
2022-09-03T15:30:25.823Z,25.30
2022-09-03T15:32:56.072Z,25.29
2022-09-03T15:35:41.724Z,25.19
2022-09-03T15:38:35.307Z,24.99
2022-09-03T15:41:04.702Z,24.76
2022-09-03T15:43:33.837Z,24.66
2022-09-03T15:46:13.829Z,24.51
2022-09-03T15:48:41.762Z,24.43
2022-09-03T15:51:10.128Z,24.34
2022-09-03T15:53:39.696Z,24.23
2022-09-03T15:56:23.142Z,24.15
2022-09-03T15:59:12.654Z,24.09
2022-09-03T16:01:58.704Z,24.04
2022-09-03T16:04:25.870Z,24.01
2022-09-03T16:06:54.446Z,23.97
2022-09-03T16:09:28.238Z,23.91
2022-09-03T16:11:59.391Z,23.87
2022-09-03T16:14:31.563Z,23.84
2022-09-03T16:16:58.651Z,23.78
2022-09-03T16:19:30.910Z,23.76
2022-09-03T16:22:05.721Z,23.76
2022-09-03T16:24:48.925Z,23.70
2022-09-03T16:27:20.391Z,23.69
2022-09-03T16:30:02.353Z,23.63
2022-09-03T16:32:36.750Z,23.57
2022-09-03T16:35:23.229Z,23.54
2022-09-03T16:37:53.234Z,23.52
2022-09-03T16:40:29.337Z,23.49
2022-09-03T16:42:59.667Z,23.47
2022-09-03T16:45:48.006Z,23.39
2022-09-03T16:48:18.441Z,23.39
2022-09-03T16:50:53.218Z,23.37
2022-09-03T16:53:29.426Z,23.35
2022-09-03T16:56:09.086Z,23.33
2022-09-03T16:58:49.295Z,23.29
2022-09-03T17:01:35.080Z,23.23
2022-09-03T17:04:02.272Z,23.18
2022-09-03T17:06:51.975Z,23.13
2022-09-03T17:09:27.976Z,23.05
2022-09-03T17:12:12.624Z,22.99
2022-09-03T17:15:00.443Z,22.88
2022-09-03T17:17:36.332Z,22.79
2022-09-03T17:20:20.170Z,22.77
2022-09-03T17:23:04.719Z,22.72
2022-09-03T17:25:53.657Z,22.69
2022-09-03T17:28:44.903Z,22.63
2022-09-03T17:31:22.432Z,22.58
2022-09-03T17:34:07.952Z,22.54
2022-09-03T17:36:40.402Z,22.48
2022-09-03T17:39:22.501Z,22.45
2022-09-03T17:41:55.938Z,22.45
2022-09-03T17:44:35.075Z,22.42
2022-09-03T17:47:06.205Z,22.42
2022-09-03T17:49:41.632Z,22.43
2022-09-03T17:52:29.718Z,22.41
2022-09-03T17:55:01.438Z,22.37
2022-09-03T17:57:40.027Z,22.35
2022-09-03T18:00:13.117Z,22.34
2022-09-03T18:02:51.190Z,22.36
2022-09-03T18:05:32.857Z,22.35
2022-09-03T18:08:07.022Z,22.31
2022-09-03T18:10:50.310Z,22.29
2022-09-03T18:13:23.672Z,22.24
2022-09-03T18:16:07.565Z,22.24
2022-09-03T18:18:37.873Z,22.16
2022-09-03T18:21:31.324Z,22.15
2022-09-03T18:24:18.085Z,22.10
2022-09-03T18:27:11.858Z,22.07
2022-09-03T18:30:03.995Z,22.01
2022-09-03T18:32:49.787Z,21.99
2022-09-03T18:35:35.724Z,21.95
2022-09-03T18:38:22.500Z,21.95
2022-09-03T18:41:31.508Z,21.92
2022-09-03T18:44:23.176Z,21.91
2022-09-03T18:48:02.073Z,21.90
2022-09-03T18:50:43.906Z,21.88
2022-09-03T18:53:36.075Z,21.88
2022-09-03T18:56:37.581Z,21.88
2022-09-03T18:59:26.551Z,21.86
2022-09-03T19:02:12.151Z,21.82
2022-09-03T19:05:24.965Z,21.79
2022-09-03T19:08:14.333Z,21.77
2022-09-03T19:11:20.376Z,21.75
2022-09-03T19:14:06.021Z,21.72
2022-09-03T19:17:10.229Z,21.71
2022-09-03T19:20:01.577Z,21.70
2022-09-03T19:22:53.332Z,21.58
2022-09-03T19:25:39.702Z,21.65
2022-09-03T19:28:38.534Z,21.61
2022-09-03T19:31:43.164Z,21.60
2022-09-03T19:34:35.569Z,21.56
2022-09-03T19:37:39.248Z,21.55
2022-09-03T19:40:25.895Z,21.53
2022-09-03T19:43:17.690Z,21.50
2022-09-03T19:46:16.699Z,21.47
2022-09-03T19:49:21.082Z,21.42
2022-09-03T19:52:25.860Z,21.41
2022-09-03T19:55:12.978Z,21.34
2022-09-03T19:58:00.261Z,21.28
2022-09-03T20:00:45.953Z,21.25
2022-09-03T20:03:33.133Z,21.27
2022-09-03T20:06:22.328Z,21.28
2022-09-03T20:09:08.643Z,21.30
2022-09-03T20:11:36.696Z,21.30
2022-09-03T20:14:16.025Z,21.30
2022-09-03T20:16:45.632Z,21.32
2022-09-03T20:19:20.668Z,21.31
2022-09-03T20:21:58.018Z,21.30
2022-09-03T20:24:34.010Z,21.31
2022-09-03T20:27:10.691Z,21.33
2022-09-03T20:29:56.337Z,21.32
2022-09-03T20:32:35.697Z,21.34
2022-09-03T20:35:26.380Z,21.35
2022-09-03T20:38:13.574Z,21.34
2022-09-03T20:40:52.832Z,21.31
2022-09-03T20:43:35.781Z,21.30
2022-09-03T20:46:38.549Z,21.29
2022-09-03T20:49:20.231Z,21.29
2022-09-03T20:51:55.503Z,21.27
2022-09-03T20:54:43.840Z,21.22
2022-09-03T20:57:14.547Z,21.17
2022-09-03T20:59:59.462Z,21.11
2022-09-03T21:02:38.652Z,21.07
2022-09-03T21:05:08.079Z,21.03
2022-09-03T21:07:41.227Z,20.98
2022-09-03T21:10:15.087Z,20.92
2022-09-03T21:12:57.538Z,20.89
2022-09-03T21:15:44.751Z,20.77
2022-09-03T21:18:41.512Z,20.73
2022-09-03T21:21:27.268Z,20.62
2022-09-03T21:24:09.059Z,20.47
2022-09-03T21:26:42.486Z,20.34
2022-09-03T21:29:22.533Z,20.28
2022-09-03T21:32:01.498Z,20.21
2022-09-03T21:34:37.080Z,20.11
2022-09-03T21:37:04.701Z,20.05
2022-09-03T21:39:40.185Z,19.93
2022-09-03T21:42:13.748Z,19.88
2022-09-03T21:44:41.061Z,19.85
2022-09-03T21:47:12.799Z,19.74
2022-09-03T21:49:42.432Z,19.69
2022-09-03T21:52:13.179Z,19.62
2022-09-03T21:54:40.011Z,19.60
2022-09-03T21:57:17.636Z,19.53
2022-09-03T22:00:04.735Z,19.52
2022-09-03T22:02:54.988Z,19.47
2022-09-03T22:05:22.609Z,19.50
2022-09-03T22:08:02.269Z,19.48
2022-09-03T22:10:48.269Z,19.48
2022-09-03T22:13:33.943Z,19.53
2022-09-03T22:16:18.205Z,19.53
2022-09-03T22:18:47.279Z,19.60
2022-09-03T22:21:20.070Z,19.59
2022-09-03T22:24:09.462Z,19.57
2022-09-03T22:27:07.740Z,19.59
2022-09-03T22:29:38.997Z,19.55
2022-09-03T22:32:11.770Z,19.56
2022-09-03T22:34:58.186Z,19.58
2022-09-03T22:37:38.080Z,19.54
2022-09-03T22:40:16.816Z,19.50
2022-09-03T22:43:01.087Z,19.53
2022-09-03T22:45:40.490Z,19.53
2022-09-03T22:48:07.626Z,19.49
2022-09-03T22:50:57.845Z,19.37
2022-09-03T22:53:28.203Z,19.32
2022-09-03T22:56:02.495Z,19.26
2022-09-03T22:58:33.475Z,19.25
2022-09-03T23:01:13.561Z,19.23
2022-09-03T23:04:03.418Z,19.17
2022-09-03T23:06:32.615Z,19.15
2022-09-03T23:09:20.031Z,19.19
2022-09-03T23:11:52.829Z,19.22
2022-09-03T23:14:22.676Z,19.23
2022-09-03T23:16:54.659Z,19.20
2022-09-03T23:19:53.607Z,19.18
2022-09-03T23:22:25.813Z,19.17
2022-09-03T23:24:54.232Z,19.16
2022-09-03T23:27:25.467Z,19.22
2022-09-03T23:29:56.555Z,19.15
2022-09-03T23:32:25.536Z,19.17
2022-09-03T23:34:57.205Z,19.21
2022-09-03T23:37:35.441Z,19.19
2022-09-03T23:40:05.375Z,19.20
2022-09-03T23:42:38.954Z,19.24
2022-09-03T23:45:05.859Z,19.19
2022-09-03T23:47:45.626Z,19.21
2022-09-03T23:50:21.051Z,19.16
2022-09-03T23:52:56.103Z,19.15
2022-09-03T23:55:32.059Z,19.14
2022-09-03T23:58:08.367Z,19.09
